Date,TemperatureHighF,TemperatureAvgF,TemperatureLowF,DewpointHighF,DewpointAvgF,DewpointLowF,HumidityHigh,HumidityAvg,HumidityLow,PressureMaxIn,PressureMinIn,WindSpeedMaxMPH,WindSpeedAvgMPH,GustSpeedMaxMPH,PrecipitationSumIn
2012-12-5,51,44,38,42,38,35,89,81,71,30.19,30.17,5,0,5,0.00
2012-12-6,49,44,38,39,34,24,90,70,39,30.28,30.18,8,0,8,0.00
2012-12-7,64,51,44,51,43,35,94,74,60,30.18,29.97,11,0,11,0.00
2012-12-8,70,52,42,51,46,41,96,81,40,30.05,29.95,9,0,9,0.00
2012-12-9,67,57,46,55,51,45,97,82,59,30.08,29.94,10,0,10,0.00
2012-12-10,59,56,44,56,52,41,95,88,81,29.94,29.63,11,0,13,0.22
2012-12-11,44,37,32,40,33,29,92,85,77,30.20,29.80,9,0,9,0.00
2012-12-12,41,35,30,34,31,29,96,87,72,30.35,30.20,2,0,2,0.00
2012-12-13,56,38,28,37,30,22,97,75,40,30.44,30.32,8,0,8,0.00
2012-12-14,59,38,24,36,28,22,94,70,30,30.44,30.25,4,0,4,0.00
2012-12-15,59,46,35,40,33,28,85,64,35,30.29,30.05,13,1,13,0.00
2012-12-16,52,48,43,51,46,39,98,94,63,30.06,29.86,17,0,17,0.79
2012-12-17,55,50,44,51,47,44,98,91,76,29.87,29.63,10,1,10,0.01
2012-12-18,49,43,32,45,36,27,96,77,48,29.99,29.68,12,0,12,0.03
2012-12-19,60,44,28,43,35,26,94,73,47,30.14,29.98,5,0,5,0.00
2012-12-20,53,45,35,46,39,27,94,80,56,30.12,29.58,16,2,16,0.46
2012-12-21,35,32,29,27,22,16,77,65,56,30.08,29.69,17,2,17,0.00
2012-12-22,42,31,24,17,14,8,67,50,26,30.30,30.07,13,1,13,0.00
2012-12-23,50,34,21,32,22,15,84,65,36,30.25,30.09,1,0,1,0.00
2012-12-24,51,45,39,48,43,31,97,93,70,30.09,29.83,9,0,9,0.45
2012-12-25,50,44,36,45,40,36,98,88,71,30.07,29.91,6,0,6,0.10
2012-12-26,46,40,30,44,38,27,95,90,80,29.91,29.43,11,1,13,1.36
2012-12-27,31,29,27,28,26,25,94,90,86,30.17,29.87,17,1,17,0.00
2012-12-28,43,34,25,36,30,24,96,84,69,30.20,29.94,8,0,8,0.10
2012-12-29,40,34,28,37,31,22,95,87,78,30.16,29.79,18,1,18,0.05
2012-12-30,36,28,24,26,22,19,88,78,58,30.50,30.16,15,1,15,0.00
2012-12-31,46,33,23,28,23,19,93,71,37,30.45,30.17,3,0,3,0.01
2013-1-1,44,38,34,44,36,27,98,90,71,30.17,30.01,2,0,2,0.29